Historique des mesures à Cassis (13260), France
Quotidien Résumé Avril 17, 2018 Unités:  Métrique/US    US   Métrique
« Précédent (Jour)
Suivant (Jour) »
Quotidien Hebdomadaire Mensuel Annuel Période au choix
  Maximum: Minimum: Moyenne:
Température: 32 °F /  TemperatureC °C 59.7 °F /  15.4 °C 64.4 °F /  18 °C
Point de rosée: 32 °F /  DewpointC °C 47.5 °F /  8.6 °C 50.9 °F /  10.5 °C
Humidité: Humidity % 53 % 58 %
Vitesse du vent: WindSpeedKMH mph /  0 km/h - 2 mph /  3.2 km/h
Rafales: WindSpeedGustKMH mph /  0 km/h - -
Vent:- - SSE
Pression: 0 in /  PressurehPa hPa 29.9 in /  1011.1 hPa -
Précipitations: 0.0 in /  0 mm    
Historical Graphs
 
 
Mesures pour : Avril 17, 2018
Heure Temperature Point de rosée Pression Vent Vitesse du vent Rafales Humidité Pluie (par heure)
32 °F /  TemperatureC °C 32 °F /  DewpointC °C 0 in /  PressurehPa hPa Calm     Humidity % HourlyPrecipMM in /  0 mm
00:10 61.7 °F /  16.5 °C 49.5 °F /  9.7 °C 29.9 in /  1011.1 hPa Calm   3.5 mph /  5.6 km/h 64 % 0.0 in /  0 mm
01:10 60.6 °F /  15.9 °C 48.4 °F /  9.1 °C 29.9 in /  1011.4 hPa NNE 1.8 mph /  2.9 km/h 2.6 mph /  4.2 km/h 64 % 0.0 in /  0 mm
02:12 60.1 °F /  15.6 °C 48.4 °F /  9.1 °C 29.9 in /  1011.7 hPa NNW 3.2 mph /  5.1 km/h 3.2 mph /  5.1 km/h 65 % 0.0 in /  0 mm
03:12 59.9 °F /  15.5 °C 48 °F /  8.9 °C 29.9 in /  1012.1 hPa Calm   2.6 mph /  4.2 km/h 65 % 0.0 in /  0 mm
04:11 60.6 °F /  15.9 °C 48.7 °F /  9.3 °C 29.9 in /  1012.1 hPa NNW 4.0 mph /  6.4 km/h 4.7 mph /  7.6 km/h 65 % 0.0 in /  0 mm
05:11 61 °F /  16.1 °C 48.4 °F /  9.1 °C 29.9 in /  1012.4 hPa NNW 1.4 mph /  2.3 km/h 2.6 mph /  4.2 km/h 63 % 0.0 in /  0 mm
06:12 60.6 °F /  15.9 °C 48 °F /  8.9 °C 29.9 in /  1013.1 hPa North 2.6 mph /  4.2 km/h 3.2 mph /  5.1 km/h 63 % 0.0 in /  0 mm
07:12 59.7 °F /  15.4 °C 47.5 °F /  8.6 °C 29.9 in /  1014.1 hPa Calm   1.1 mph /  1.8 km/h 64 % 0.0 in /  0 mm
08:11 61.5 °F /  16.4 °C 49.3 °F /  9.6 °C 30 in /  1015.1 hPa Calm   1.1 mph /  1.8 km/h 64 % 0.0 in /  0 mm
09:11 63 °F /  17.2 °C 50.5 °F /  10.3 °C 30 in /  1015.8 hPa SE 2.6 mph /  4.2 km/h 3.5 mph /  5.6 km/h 64 % 0.0 in /  0 mm
10:11 63.3 °F /  17.4 °C 50.9 °F /  10.5 °C 30 in /  1016.8 hPa SE 2.6 mph /  4.2 km/h 5.0 mph /  8 km/h 64 % 0.0 in /  0 mm
11:11 68.7 °F /  20.4 °C 55.2 °F /  12.9 °C 30 in /  1017.2 hPa ESE 4.3 mph /  6.9 km/h 5.8 mph /  9.3 km/h 62 % 0.0 in /  0 mm
12:11 71.8 °F /  22.1 °C 56.1 °F /  13.4 °C 30.1 in /  1017.5 hPa SE 4.0 mph /  6.4 km/h 6.4 mph /  10.3 km/h 58 % 0.0 in /  0 mm
13:10 72.7 °F /  22.6 °C 56.5 °F /  13.6 °C 30 in /  1017.2 hPa SE 5.8 mph /  9.3 km/h 8.2 mph /  13.2 km/h 57 % 0.0 in /  0 mm
14:10 73.2 °F /  22.9 °C 55.6 °F /  13.1 °C 30 in /  1017.2 hPa SE 7.2 mph /  11.6 km/h 8.2 mph /  13.2 km/h 54 % 0.0 in /  0 mm
15:10 73.4 °F /  23.0 °C 55 °F /  12.8 °C 30.1 in /  1017.5 hPa SE 3.5 mph /  5.6 km/h 3.5 mph /  5.6 km/h 53 % 0.0 in /  0 mm
16:10 73.2 °F /  22.9 °C 55 °F /  12.8 °C 30.1 in /  1017.8 hPa Calm   9.3 mph /  15 km/h 53 % 0.0 in /  0 mm
17:10 71.8 °F /  22.1 °C 55.2 °F /  12.9 °C 30.1 in /  1017.8 hPa ESE 1.4 mph /  2.3 km/h 4.7 mph /  7.6 km/h 56 % 0.0 in /  0 mm
18:10 69.6 °F /  20.9 °C 55.6 °F /  13.1 °C 30.1 in /  1017.8 hPa SE 3.2 mph /  5.1 km/h 5.0 mph /  8 km/h 61 % 0.0 in /  0 mm
19:10 68.7 °F /  20.4 °C 54.3 °F /  12.4 °C 30.1 in /  1017.8 hPa Calm   1.1 mph /  1.8 km/h 60 % 0.0 in /  0 mm
20:10 67.6 °F /  19.8 °C 53.2 °F /  11.8 °C 30.1 in /  1018.5 hPa Calm     60 % 0.0 in /  0 mm
21:10 65.3 °F /  18.5 °C 50.5 °F /  10.3 °C 30.1 in /  1018.8 hPa Calm   1.1 mph /  1.8 km/h 59 % 0.0 in /  0 mm
22:10 64 °F /  17.8 °C 50.4 °F /  10.2 °C 30.1 in /  1019.9 hPa Calm     61 % 0.0 in /  0 mm
23:12 64.2 °F /  17.9 °C 49.5 °F /  9.7 °C 30.1 in /  1020.2 hPa NW 2.1 mph /  3.4 km/h 3.5 mph /  5.6 km/h 59 % 0.0 in /  0 mm
Observations météo à CASSIS
WU-History script by Weather Underground - 1 mb